메인 페이지
METAR-TAF:

METAR-TAF

공항 :

세인트크로이 섬, 미국령 버진아일랜드

위도: 17-42N, 경도: 064-48W, 고도: 20m

현재 날씨관측

예보는 56분 전, 09:53시(UTC)에 발표되었습니다.
북동5kt
온도 22°C
습도 78%
기압 1019 hPa
시정: 16.1km
맑음

METAR: TISX 180953Z AUTO 04005KT 10SM CLR 22/18 A3008 RMK AO2 SLP184 T02170178

시각: 06:49 (10:49 UTC)

예보

예보는 4 시간 44분 전, 06:05시(UTC)에 발표되었습니다.
예보 대상 시간: 18일 06시부터 19일 06시까지 (UTC)
북동5kt
시정: 10km
고도 2500ft 상공 구름 조금
고도 3500ft 상공 구름 보통
18일 0900시부터 (UTC)
북동8kt
시정: 10km
고도 2500ft 상공 구름 보통
고도 4000ft 상공 구름 보통
시계 내 소나기
18일 1400시부터 (UTC)
동북동16kt, 순간 최대 풍속 26kt
시정: 10km
고도 2800ft 상공 구름 조금
고도 5000ft 상공 구름 보통
18일 2200시부터 (UTC)
동북동14kt
시정: 10km
고도 2500ft 상공 구름 보통
고도 3500ft 상공 구름 보통
시계 내 소나기

TAF: TISX 180605Z 1806/1906 05005KT P6SM FEW025 SCT035 FM180900 04008KT P6SM VCSH SCT025 SCT040 FM181400 06016G26KT P6SM FEW028 SCT050 FM182200 06014KT P6SM VCSH SCT025 SCT035

4,000개 이상의 공항 관측 자료 및 예보 (METAR 및 TAF 보고).

지도상에서 검색 가능한 기상관측소가 노란 점과 빨간 점으로 표시되어 있습니다.

기상관측소 명을 보려면 표시 위로 마우스를 이동하세요.

날씨 관측과 예보를 보려면 클릭하세요.

지도 변경 : 확대하려면 엑스 표시가 있는 녹색 버튼, 축소하려면 빼기 표시가 있는 녹색 버튼, 다음 페이지의 지도를 보려면 녹색 화살표를 클릭하세요.


METAR-TAF: